sensor_id;sensor_type;location;lat;lon;timestamp;pressure;altitude;pressure_sealevel;temperature;humidity
64610;BME280;51019;46.090;6.350;2023-04-06T00:01:06;96834.56;;;-0.21;100.00
64610;BME280;51019;46.090;6.350;2023-04-06T00:03:33;96829.41;;;-0.21;100.00
64610;BME280;51019;46.090;6.350;2023-04-06T00:06:01;96829.97;;;-0.14;100.00
64610;BME280;51019;46.090;6.350;2023-04-06T00:08:28;96837.00;;;-0.18;100.00
64610;BME280;51019;46.090;6.350;2023-04-06T00:10:57;96830.31;;;-0.41;100.00
64610;BME280;51019;46.090;6.350;2023-04-06T00:13:24;96830.38;;;-0.42;100.00
64610;BME280;51019;46.090;6.350;2023-04-06T00:15:51;96812.88;;;-0.54;100.00
64610;BME280;51019;46.090;6.350;2023-04-06T00:18:19;96825.00;;;-0.56;100.00
64610;BME280;51019;46.090;6.350;2023-04-06T00:20:46;96829.88;;;-0.50;100.00
64610;BME280;51019;46.090;6.350;2023-04-06T00:23:14;96818.59;;;-0.66;100.00
64610;BME280;51019;46.090;6.350;2023-04-06T00:25:41;96823.19;;;-0.73;100.00
64610;BME280;51019;46.090;6.350;2023-04-06T00:28:10;96818.38;;;-0.81;100.00
64610;BME280;51019;46.090;6.350;2023-04-06T00:30:38;96809.53;;;-0.75;100.00
64610;BME280;51019;46.090;6.350;2023-04-06T00:33:05;96826.41;;;-0.68;100.00
64610;BME280;51019;46.090;6.350;2023-04-06T00:35:34;96821.44;;;-0.73;100.00
64610;BME280;51019;46.090;6.350;2023-04-06T00:38:01;96822.28;;;-0.72;100.00
64610;BME280;51019;46.090;6.350;2023-04-06T00:40:29;96812.47;;;-0.64;100.00
64610;BME280;51019;46.090;6.350;2023-04-06T00:42:58;96825.81;;;-0.56;100.00
64610;BME280;51019;46.090;6.350;2023-04-06T00:45:27;96823.47;;;-0.60;100.00
64610;BME280;51019;46.090;6.350;2023-04-06T00:47:55;96809.28;;;-0.50;100.00
64610;BME280;51019;46.090;6.350;2023-04-06T00:50:23;96806.53;;;-0.46;100.00
64610;BME280;51019;46.090;6.350;2023-04-06T00:52:50;96801.44;;;-0.86;100.00
64610;BME280;51019;46.090;6.350;2023-04-06T00:55:18;96745.59;;;-1.43;100.00
64610;BME280;51019;46.090;6.350;2023-04-06T00:57:45;96821.22;;;-1.07;100.00
64610;BME280;51019;46.090;6.350;2023-04-06T01:00:13;96804.44;;;-1.16;100.00
64610;BME280;51019;46.090;6.350;2023-04-06T01:02:44;96810.88;;;-1.05;100.00
64610;BME280;51019;46.090;6.350;2023-04-06T01:05:12;96795.38;;;-1.04;100.00
64610;BME280;51019;46.090;6.350;2023-04-06T01:07:39;96782.34;;;-1.01;100.00
64610;BME280;51019;46.090;6.350;2023-04-06T01:10:07;96809.50;;;-0.94;100.00
64610;BME280;51019;46.090;6.350;2023-04-06T01:12:35;96811.19;;;-1.13;100.00
64610;BME280;51019;46.090;6.350;2023-04-06T01:15:04;96802.66;;;-1.14;100.00
64610;BME280;51019;46.090;6.350;2023-04-06T01:17:32;96798.91;;;-1.27;100.00
64610;BME280;51019;46.090;6.350;2023-04-06T01:20:01;96795.00;;;-1.15;100.00
64610;BME280;51019;46.090;6.350;2023-04-06T01:22:30;96771.56;;;-1.09;100.00
64610;BME280;51019;46.090;6.350;2023-04-06T01:24:58;96763.13;;;-1.13;100.00
64610;BME280;51019;46.090;6.350;2023-04-06T01:27:25;96782.63;;;-1.07;100.00
64610;BME280;51019;46.090;6.350;2023-04-06T01:29:53;96785.19;;;-1.07;100.00
64610;BME280;51019;46.090;6.350;2023-04-06T01:32:21;96779.34;;;-1.11;100.00
64610;BME280;51019;46.090;6.350;2023-04-06T01:34:48;96753.25;;;-1.22;100.00
64610;BME280;51019;46.090;6.350;2023-04-06T01:37:15;96781.03;;;-1.30;100.00
64610;BME280;51019;46.090;6.350;2023-04-06T01:39:44;96765.03;;;-1.36;100.00
64610;BME280;51019;46.090;6.350;2023-04-06T01:42:12;96769.66;;;-1.24;100.00
64610;BME280;51019;46.090;6.350;2023-04-06T01:44:39;96758.22;;;-1.37;100.00
64610;BME280;51019;46.090;6.350;2023-04-06T01:47:06;96771.97;;;-1.18;100.00
64610;BME280;51019;46.090;6.350;2023-04-06T01:49:34;96780.50;;;-1.18;100.00
64610;BME280;51019;46.090;6.350;2023-04-06T01:52:01;96781.72;;;-1.47;100.00
64610;BME280;51019;46.090;6.350;2023-04-06T01:54:28;96781.88;;;-1.50;100.00
64610;BME280;51019;46.090;6.350;2023-04-06T01:56:57;96761.28;;;-1.92;100.00
64610;BME280;51019;46.090;6.350;2023-04-06T01:59:25;96786.72;;;-1.64;100.00
64610;BME280;51019;46.090;6.350;2023-04-06T02:01:52;96776.00;;;-1.73;100.00
64610;BME280;51019;46.090;6.350;2023-04-06T02:04:20;96791.19;;;-1.47;100.00
64610;BME280;51019;46.090;6.350;2023-04-06T02:06:47;96781.25;;;-1.56;100.00
64610;BME280;51019;46.090;6.350;2023-04-06T02:09:14;96787.16;;;-1.74;100.00
64610;BME280;51019;46.090;6.350;2023-04-06T02:11:42;96775.38;;;-1.80;100.00
64610;BME280;51019;46.090;6.350;2023-04-06T02:14:11;96791.94;;;-1.65;100.00
64610;BME280;51019;46.090;6.350;2023-04-06T02:16:38;96791.75;;;-1.61;100.00
64610;BME280;51019;46.090;6.350;2023-04-06T02:19:05;96790.88;;;-1.39;100.00
64610;BME280;51019;46.090;6.350;2023-04-06T02:21:33;96796.06;;;-1.61;100.00
64610;BME280;51019;46.090;6.350;2023-04-06T02:24:01;96793.53;;;-1.63;100.00
64610;BME280;51019;46.090;6.350;2023-04-06T02:26:30;96767.94;;;-1.86;100.00
64610;BME280;51019;46.090;6.350;2023-04-06T02:28:57;96792.72;;;-1.63;100.00
64610;BME280;51019;46.090;6.350;2023-04-06T02:31:26;96769.13;;;-1.73;100.00
64610;BME280;51019;46.090;6.350;2023-04-06T02:33:54;96790.72;;;-1.57;100.00
64610;BME280;51019;46.090;6.350;2023-04-06T02:36:21;96795.09;;;-1.59;100.00
64610;BME280;51019;46.090;6.350;2023-04-06T02:38:48;96775.03;;;-1.71;100.00
64610;BME280;51019;46.090;6.350;2023-04-06T02:41:17;96789.47;;;-1.68;100.00
64610;BME280;51019;46.090;6.350;2023-04-06T02:43:44;96781.13;;;-1.73;100.00
64610;BME280;51019;46.090;6.350;2023-04-06T02:46:12;96790.63;;;-1.75;100.00
64610;BME280;51019;46.090;6.350;2023-04-06T02:48:41;96783.41;;;-1.88;100.00
64610;BME280;51019;46.090;6.350;2023-04-06T02:51:08;96782.06;;;-1.96;100.00
64610;BME280;51019;46.090;6.350;2023-04-06T02:53:36;96782.84;;;-1.94;100.00
64610;BME280;51019;46.090;6.350;2023-04-06T02:56:04;96740.13;;;-2.18;100.00
64610;BME280;51019;46.090;6.350;2023-04-06T02:58:32;96776.88;;;-2.16;100.00
64610;BME280;51019;46.090;6.350;2023-04-06T03:00:59;96772.56;;;-2.16;100.00
64610;BME280;51019;46.090;6.350;2023-04-06T03:03:26;96786.53;;;-2.01;100.00
64610;BME280;51019;46.090;6.350;2023-04-06T03:05:55;96776.97;;;-1.98;100.00
64610;BME280;51019;46.090;6.350;2023-04-06T03:08:24;96736.00;;;-2.23;100.00
64610;BME280;51019;46.090;6.350;2023-04-06T03:10:51;96776.66;;;-1.90;100.00
64610;BME280;51019;46.090;6.350;2023-04-06T03:13:18;96778.88;;;-1.81;100.00
64610;BME280;51019;46.090;6.350;2023-04-06T03:15:46;96776.44;;;-1.84;100.00
64610;BME280;51019;46.090;6.350;2023-04-06T03:18:14;96774.16;;;-1.70;100.00
64610;BME280;51019;46.090;6.350;2023-04-06T03:20:41;96779.84;;;-1.84;100.00
64610;BME280;51019;46.090;6.350;2023-04-06T03:23:10;96774.94;;;-1.90;100.00
64610;BME280;51019;46.090;6.350;2023-04-06T03:25:37;96774.16;;;-1.92;100.00
64610;BME280;51019;46.090;6.350;2023-04-06T03:28:05;96733.84;;;-2.11;100.00
64610;BME280;51019;46.090;6.350;2023-04-06T03:30:33;96784.53;;;-1.73;100.00
64610;BME280;51019;46.090;6.350;2023-04-06T03:33:00;96783.09;;;-1.80;100.00
64610;BME280;51019;46.090;6.350;2023-04-06T03:35:28;96779.94;;;-1.87;100.00
64610;BME280;51019;46.090;6.350;2023-04-06T03:37:56;96786.34;;;-1.97;100.00
64610;BME280;51019;46.090;6.350;2023-04-06T03:40:25;96772.72;;;-2.21;100.00
64610;BME280;51019;46.090;6.350;2023-04-06T03:42:53;96769.44;;;-2.24;100.00
64610;BME280;51019;46.090;6.350;2023-04-06T03:45:21;96797.16;;;-2.10;100.00
64610;BME280;51019;46.090;6.350;2023-04-06T03:47:49;96781.31;;;-2.00;100.00
64610;BME280;51019;46.090;6.350;2023-04-06T03:50:16;96791.19;;;-2.11;100.00
64610;BME280;51019;46.090;6.350;2023-04-06T03:52:44;96796.41;;;-2.36;100.00
64610;BME280;51019;46.090;6.350;2023-04-06T03:55:12;96771.19;;;-2.48;100.00
64610;BME280;51019;46.090;6.350;2023-04-06T03:57:44;96793.31;;;-2.44;100.00
64610;BME280;51019;46.090;6.350;2023-04-06T04:00:12;96797.00;;;-2.51;100.00
64610;BME280;51019;46.090;6.350;2023-04-06T04:02:41;96809.25;;;-2.36;100.00
64610;BME280;51019;46.090;6.350;2023-04-06T04:05:09;96772.25;;;-2.75;100.00
64610;BME280;51019;46.090;6.350;2023-04-06T04:07:36;96811.13;;;-2.63;100.00
64610;BME280;51019;46.090;6.350;2023-04-06T04:10:06;96813.44;;;-2.57;100.00
64610;BME280;51019;46.090;6.350;2023-04-06T04:12:35;96793.66;;;-2.76;100.00
64610;BME280;51019;46.090;6.350;2023-04-06T04:15:06;96812.81;;;-2.62;100.00
64610;BME280;51019;46.090;6.350;2023-04-06T04:17:33;96813.75;;;-2.64;100.00
64610;BME280;51019;46.090;6.350;2023-04-06T04:20:01;96809.59;;;-2.45;100.00
64610;BME280;51019;46.090;6.350;2023-04-06T04:22:28;96819.72;;;-2.40;100.00
64610;BME280;51019;46.090;6.350;2023-04-06T04:24:57;96813.00;;;-2.44;100.00
64610;BME280;51019;46.090;6.350;2023-04-06T04:27:25;96821.66;;;-2.47;100.00
64610;BME280;51019;46.090;6.350;2023-04-06T04:29:52;96804.91;;;-2.57;100.00
64610;BME280;51019;46.090;6.350;2023-04-06T04:32:22;96822.44;;;-2.45;100.00
64610;BME280;51019;46.090;6.350;2023-04-06T04:34:52;96828.31;;;-2.41;100.00
64610;BME280;51019;46.090;6.350;2023-04-06T04:37:20;96826.06;;;-2.50;100.00
64610;BME280;51019;46.090;6.350;2023-04-06T04:39:47;96804.81;;;-2.77;100.00
64610;BME280;51019;46.090;6.350;2023-04-06T04:42:15;96799.69;;;-2.77;100.00
64610;BME280;51019;46.090;6.350;2023-04-06T04:44:43;96836.28;;;-2.72;100.00
64610;BME280;51019;46.090;6.350;2023-04-06T04:47:11;96836.06;;;-2.66;100.00
64610;BME280;51019;46.090;6.350;2023-04-06T04:49:41;96841.88;;;-2.61;100.00
64610;BME280;51019;46.090;6.350;2023-04-06T04:52:09;96836.16;;;-2.69;100.00
64610;BME280;51019;46.090;6.350;2023-04-06T04:54:37;96833.91;;;-2.78;100.00
64610;BME280;51019;46.090;6.350;2023-04-06T04:57:06;96846.84;;;-2.81;100.00
64610;BME280;51019;46.090;6.350;2023-04-06T04:59:34;96842.91;;;-2.67;100.00
64610;BME280;51019;46.090;6.350;2023-04-06T05:02:02;96843.97;;;-2.72;100.00
64610;BME280;51019;46.090;6.350;2023-04-06T05:04:29;96854.88;;;-2.90;100.00
64610;BME280;51019;46.090;6.350;2023-04-06T05:07:05;96854.53;;;-2.81;100.00
64610;BME280;51019;46.090;6.350;2023-04-06T05:09:33;96846.84;;;-2.81;100.00
64610;BME280;51019;46.090;6.350;2023-04-06T05:12:01;96849.78;;;-2.67;100.00
64610;BME280;51019;46.090;6.350;2023-04-06T05:14:28;96847.19;;;-2.67;100.00
64610;BME280;51019;46.090;6.350;2023-04-06T05:16:56;96825.66;;;-2.86;100.00
64610;BME280;51019;46.090;6.350;2023-04-06T05:19:23;96847.44;;;-2.50;100.00
64610;BME280;51019;46.090;6.350;2023-04-06T05:21:51;96844.69;;;-2.45;100.00
64610;BME280;51019;46.090;6.350;2023-04-06T05:24:20;96850.31;;;-2.59;100.00
64610;BME280;51019;46.090;6.350;2023-04-06T05:26:48;96844.63;;;-2.67;100.00
64610;BME280;51019;46.090;6.350;2023-04-06T05:29:16;96847.00;;;-2.61;100.00
64610;BME280;51019;46.090;6.350;2023-04-06T05:31:43;96835.06;;;-2.62;100.00
64610;BME280;51019;46.090;6.350;2023-04-06T05:34:11;96845.78;;;-2.51;100.00
64610;BME280;51019;46.090;6.350;2023-04-06T05:36:39;96832.19;;;-2.54;100.00
64610;BME280;51019;46.090;6.350;2023-04-06T05:39:07;96837.28;;;-2.53;100.00
64610;BME280;51019;46.090;6.350;2023-04-06T05:41:36;96829.63;;;-2.31;100.00
64610;BME280;51019;46.090;6.350;2023-04-06T05:44:04;96832.78;;;-2.25;100.00
64610;BME280;51019;46.090;6.350;2023-04-06T05:46:34;96849.63;;;-1.94;100.00
64610;BME280;51019;46.090;6.350;2023-04-06T05:49:01;96848.31;;;-2.04;100.00
64610;BME280;51019;46.090;6.350;2023-04-06T05:51:29;96852.88;;;-1.91;100.00
64610;BME280;51019;46.090;6.350;2023-04-06T05:53:56;96848.16;;;-2.01;100.00
64610;BME280;51019;46.090;6.350;2023-04-06T05:56:24;96839.81;;;-2.06;100.00
64610;BME280;51019;46.090;6.350;2023-04-06T05:58:53;96861.69;;;-1.74;100.00
64610;BME280;51019;46.090;6.350;2023-04-06T06:01:21;96864.34;;;-1.34;100.00
64610;BME280;51019;46.090;6.350;2023-04-06T06:03:49;96833.34;;;-1.31;100.00
64610;BME280;51019;46.090;6.350;2023-04-06T06:06:17;96855.22;;;-1.00;100.00
64610;BME280;51019;46.090;6.350;2023-04-06T06:08:44;96857.22;;;-0.87;100.00
64610;BME280;51019;46.090;6.350;2023-04-06T06:11:12;96854.75;;;-0.30;100.00
64610;BME280;51019;46.090;6.350;2023-04-06T06:13:39;96855.09;;;-0.19;100.00
64610;BME280;51019;46.090;6.350;2023-04-06T06:16:09;96858.31;;;0.41;100.00
64610;BME280;51019;46.090;6.350;2023-04-06T06:18:36;96864.34;;;0.58;100.00
64610;BME280;51019;46.090;6.350;2023-04-06T06:21:04;96869.50;;;0.58;100.00
64610;BME280;51019;46.090;6.350;2023-04-06T06:23:32;96870.63;;;0.53;100.00
64610;BME280;51019;46.090;6.350;2023-04-06T06:25:59;96872.50;;;0.85;100.00
64610;BME280;51019;46.090;6.350;2023-04-06T06:28:26;96865.91;;;0.97;100.00
64610;BME280;51019;46.090;6.350;2023-04-06T06:30:54;96818.38;;;1.01;100.00
64610;BME280;51019;46.090;6.350;2023-04-06T06:33:23;96849.88;;;1.58;100.00
64610;BME280;51019;46.090;6.350;2023-04-06T06:35:51;96842.34;;;1.53;100.00
64610;BME280;51019;46.090;6.350;2023-04-06T06:38:19;96862.00;;;2.04;100.00
64610;BME280;51019;46.090;6.350;2023-04-06T06:40:47;96859.16;;;2.56;100.00
64610;BME280;51019;46.090;6.350;2023-04-06T06:43:14;96861.59;;;2.89;100.00
64610;BME280;51019;46.090;6.350;2023-04-06T06:45:42;96852.19;;;3.32;100.00
64610;BME280;51019;46.090;6.350;2023-04-06T06:48:09;96860.97;;;3.44;100.00
64610;BME280;51019;46.090;6.350;2023-04-06T06:50:39;96867.06;;;3.14;100.00
64610;BME280;51019;46.090;6.350;2023-04-06T06:53:06;96840.31;;;3.28;100.00
64610;BME280;51019;46.090;6.350;2023-04-06T06:55:34;96867.34;;;3.24;100.00
64610;BME280;51019;46.090;6.350;2023-04-06T06:58:01;96863.47;;;3.45;100.00
64610;BME280;51019;46.090;6.350;2023-04-06T07:00:29;96861.81;;;3.87;100.00
64610;BME280;51019;46.090;6.350;2023-04-06T07:02:56;96858.94;;;3.63;100.00
64610;BME280;51019;46.090;6.350;2023-04-06T07:05:24;96868.28;;;3.37;100.00
64610;BME280;51019;46.090;6.350;2023-04-06T07:07:53;96872.69;;;3.21;100.00
64610;BME280;51019;46.090;6.350;2023-04-06T07:10:20;96869.34;;;3.19;100.00
64610;BME280;51019;46.090;6.350;2023-04-06T07:12:51;96866.75;;;3.05;100.00
64610;BME280;51019;46.090;6.350;2023-04-06T07:15:19;96870.06;;;3.79;100.00
64610;BME280;51019;46.090;6.350;2023-04-06T07:17:46;96867.75;;;3.75;100.00
64610;BME280;51019;46.090;6.350;2023-04-06T07:20:14;96865.16;;;4.03;100.00
64610;BME280;51019;46.090;6.350;2023-04-06T07:22:43;96872.38;;;3.98;100.00
64610;BME280;51019;46.090;6.350;2023-04-06T07:25:12;96841.06;;;4.01;100.00
64610;BME280;51019;46.090;6.350;2023-04-06T07:27:40;96864.25;;;4.72;100.00
64610;BME280;51019;46.090;6.350;2023-04-06T07:30:08;96838.09;;;4.48;98.28
64610;BME280;51019;46.090;6.350;2023-04-06T07:32:38;96855.16;;;4.65;98.47
64610;BME280;51019;46.090;6.350;2023-04-06T07:35:06;96864.91;;;5.53;94.55
64610;BME280;51019;46.090;6.350;2023-04-06T07:37:35;96852.31;;;5.47;96.44
64610;BME280;51019;46.090;6.350;2023-04-06T07:40:02;96833.72;;;5.40;94.01
64610;BME280;51019;46.090;6.350;2023-04-06T07:42:31;96859.19;;;5.48;92.13
64610;BME280;51019;46.090;6.350;2023-04-06T07:44:59;96860.63;;;5.77;93.14
64610;BME280;51019;46.090;6.350;2023-04-06T07:47:27;96855.03;;;5.83;92.10
64610;BME280;51019;46.090;6.350;2023-04-06T07:49:56;96841.09;;;5.84;92.29
64610;BME280;51019;46.090;6.350;2023-04-06T07:52:24;96847.38;;;6.31;88.06
64610;BME280;51019;46.090;6.350;2023-04-06T07:54:53;96863.34;;;6.14;92.65
64610;BME280;51019;46.090;6.350;2023-04-06T07:57:21;96867.31;;;6.43;70.66
64610;BME280;51019;46.090;6.350;2023-04-06T07:59:50;96845.28;;;6.60;67.74
64610;BME280;51019;46.090;6.350;2023-04-06T08:02:19;96853.44;;;6.79;66.06
64610;BME280;51019;46.090;6.350;2023-04-06T08:04:46;96841.28;;;6.67;68.30
64610;BME280;51019;46.090;6.350;2023-04-06T08:07:13;96870.44;;;6.72;67.58
64610;BME280;51019;46.090;6.350;2023-04-06T08:09:41;96867.19;;;6.81;68.67
64610;BME280;51019;46.090;6.350;2023-04-06T08:12:08;96865.66;;;6.66;72.78
64610;BME280;51019;46.090;6.350;2023-04-06T08:14:36;96851.66;;;6.80;70.63
64610;BME280;51019;46.090;6.350;2023-04-06T08:17:05;96854.13;;;7.40;69.76
64610;BME280;51019;46.090;6.350;2023-04-06T08:19:34;96859.19;;;7.88;67.80
64610;BME280;51019;46.090;6.350;2023-04-06T08:22:02;96852.63;;;8.05;67.05
64610;BME280;51019;46.090;6.350;2023-04-06T08:24:30;96839.13;;;7.88;66.03
64610;BME280;51019;46.090;6.350;2023-04-06T08:26:59;96851.22;;;7.78;67.71
64610;BME280;51019;46.090;6.350;2023-04-06T08:29:26;96852.88;;;8.01;64.08
64610;BME280;51019;46.090;6.350;2023-04-06T08:31:53;96848.97;;;8.41;61.37
64610;BME280;51019;46.090;6.350;2023-04-06T08:34:22;96853.34;;;8.40;59.84
64610;BME280;51019;46.090;6.350;2023-04-06T08:36:49;96851.44;;;8.53;61.10
64610;BME280;51019;46.090;6.350;2023-04-06T08:39:17;96839.59;;;9.13;59.04
64610;BME280;51019;46.090;6.350;2023-04-06T08:41:51;96824.00;;;8.91;53.55
64610;BME280;51019;46.090;6.350;2023-04-06T08:44:22;96842.66;;;8.43;54.80
64610;BME280;51019;46.090;6.350;2023-04-06T08:46:50;96843.59;;;8.31;54.01
64610;BME280;51019;46.090;6.350;2023-04-06T08:49:22;96822.00;;;8.29;54.65
64610;BME280;51019;46.090;6.350;2023-04-06T08:51:49;96841.31;;;8.60;54.06
64610;BME280;51019;46.090;6.350;2023-04-06T08:54:17;96835.13;;;9.45;53.78
64610;BME280;51019;46.090;6.350;2023-04-06T08:56:46;96811.13;;;9.40;54.62
64610;BME280;51019;46.090;6.350;2023-04-06T08:59:14;96839.88;;;10.12;53.82
64610;BME280;51019;46.090;6.350;2023-04-06T09:01:44;96835.25;;;9.65;58.30
64610;BME280;51019;46.090;6.350;2023-04-06T09:04:12;96835.88;;;9.78;52.51
64610;BME280;51019;46.090;6.350;2023-04-06T09:06:44;96831.06;;;10.13;53.57
64610;BME280;51019;46.090;6.350;2023-04-06T09:09:11;96830.31;;;10.23;53.96
64610;BME280;51019;46.090;6.350;2023-04-06T09:11:43;96834.63;;;10.52;50.90
64610;BME280;51019;46.090;6.350;2023-04-06T09:14:11;96830.16;;;11.03;50.65
64610;BME280;51019;46.090;6.350;2023-04-06T09:16:41;96831.56;;;10.07;49.02
64610;BME280;51019;46.090;6.350;2023-04-06T09:19:09;96829.88;;;11.15;49.94
64610;BME280;51019;46.090;6.350;2023-04-06T09:21:40;96817.28;;;11.19;48.64
64610;BME280;51019;46.090;6.350;2023-04-06T09:24:11;96774.25;;;10.73;46.15
64610;BME280;51019;46.090;6.350;2023-04-06T09:26:45;96829.47;;;11.10;45.00
64610;BME280;51019;46.090;6.350;2023-04-06T09:29:23;96810.56;;;11.92;42.82
64610;BME280;51019;46.090;6.350;2023-04-06T09:31:52;96824.19;;;12.05;41.88
64610;BME280;51019;46.090;6.350;2023-04-06T09:34:23;96820.94;;;11.74;43.06
64610;BME280;51019;46.090;6.350;2023-04-06T09:36:51;96817.50;;;11.83;39.01
64610;BME280;51019;46.090;6.350;2023-04-06T09:39:23;96815.88;;;11.53;42.28
64610;BME280;51019;46.090;6.350;2023-04-06T09:41:53;96819.31;;;11.73;42.84
64610;BME280;51019;46.090;6.350;2023-04-06T09:44:21;96826.69;;;11.97;40.87
64610;BME280;51019;46.090;6.350;2023-04-06T09:46:54;96815.19;;;11.61;40.81
64610;BME280;51019;46.090;6.350;2023-04-06T09:49:23;96824.88;;;12.62;41.75
64610;BME280;51019;46.090;6.350;2023-04-06T09:51:54;96823.06;;;12.80;40.25
64610;BME280;51019;46.090;6.350;2023-04-06T09:54:28;96809.38;;;12.41;38.98
64610;BME280;51019;46.090;6.350;2023-04-06T09:57:02;96802.53;;;12.66;38.95
64610;BME280;51019;46.090;6.350;2023-04-06T09:59:39;96743.13;;;12.73;39.33
64610;BME280;51019;46.090;6.350;2023-04-06T10:02:11;96807.06;;;13.96;37.78
64610;BME280;51019;46.090;6.350;2023-04-06T10:04:44;96799.16;;;13.70;37.67
64610;BME280;51019;46.090;6.350;2023-04-06T10:07:15;96806.13;;;14.39;35.64
64610;BME280;51019;46.090;6.350;2023-04-06T10:09:46;96799.94;;;14.23;39.16
64610;BME280;51019;46.090;6.350;2023-04-06T10:12:15;96795.31;;;14.59;33.32
64610;BME280;51019;46.090;6.350;2023-04-06T10:14:44;96798.41;;;14.46;33.64
64610;BME280;51019;46.090;6.350;2023-04-06T10:17:11;96798.09;;;14.49;34.00
64610;BME280;51019;46.090;6.350;2023-04-06T10:19:59;96797.97;;;14.25;31.76
64610;BME280;51019;46.090;6.350;2023-04-06T10:22:32;96778.66;;;14.50;34.67
64610;BME280;51019;46.090;6.350;2023-04-06T10:25:08;96794.63;;;14.57;35.22
64610;BME280;51019;46.090;6.350;2023-04-06T10:27:36;96788.53;;;14.48;33.82
64610;BME280;51019;46.090;6.350;2023-04-06T10:30:07;96775.72;;;14.27;33.35
64610;BME280;51019;46.090;6.350;2023-04-06T10:32:37;96777.28;;;13.70;34.61
64610;BME280;51019;46.090;6.350;2023-04-06T10:35:07;96784.19;;;13.97;32.87
64610;BME280;51019;46.090;6.350;2023-04-06T10:37:50;96784.50;;;14.36;32.35
64610;BME280;51019;46.090;6.350;2023-04-06T10:40:22;96768.16;;;13.90;32.60
64610;BME280;51019;46.090;6.350;2023-04-06T10:42:51;96791.09;;;13.98;31.91
64610;BME280;51019;46.090;6.350;2023-04-06T10:45:20;96775.34;;;14.14;32.23
64610;BME280;51019;46.090;6.350;2023-04-06T10:47:49;96790.25;;;14.31;34.62
64610;BME280;51019;46.090;6.350;2023-04-06T10:50:17;96791.13;;;14.06;35.99
64610;BME280;51019;46.090;6.350;2023-04-06T10:52:45;96788.34;;;14.41;33.90
64610;BME280;51019;46.090;6.350;2023-04-06T10:55:16;96755.00;;;14.32;32.32
64610;BME280;51019;46.090;6.350;2023-04-06T10:57:48;96763.47;;;14.44;34.67
64610;BME280;51019;46.090;6.350;2023-04-06T11:00:16;96785.16;;;15.12;34.15
64610;BME280;51019;46.090;6.350;2023-04-06T11:02:45;96768.16;;;15.39;34.53
64610;BME280;51019;46.090;6.350;2023-04-06T11:05:14;96697.22;;;15.04;33.63
64610;BME280;51019;46.090;6.350;2023-04-06T11:07:44;96772.47;;;15.65;32.34
64610;BME280;51019;46.090;6.350;2023-04-06T11:10:11;96773.63;;;15.46;34.11
64610;BME280;51019;46.090;6.350;2023-04-06T11:12:39;96762.75;;;15.00;33.64
64610;BME280;51019;46.090;6.350;2023-04-06T11:15:10;96761.38;;;14.80;35.85
64610;BME280;51019;46.090;6.350;2023-04-06T11:17:38;96767.69;;;15.19;32.71
64610;BME280;51019;46.090;6.350;2023-04-06T11:20:10;96748.38;;;15.19;32.18
64610;BME280;51019;46.090;6.350;2023-04-06T11:22:48;96760.38;;;15.78;31.79
64610;BME280;51019;46.090;6.350;2023-04-06T11:25:16;96744.31;;;15.88;31.23
64610;BME280;51019;46.090;6.350;2023-04-06T11:27:44;96761.94;;;16.04;31.91
64610;BME280;51019;46.090;6.350;2023-04-06T11:30:15;96762.28;;;16.01;28.36
64610;BME280;51019;46.090;6.350;2023-04-06T11:32:43;96753.66;;;15.03;28.94
64610;BME280;51019;46.090;6.350;2023-04-06T11:35:12;96757.13;;;16.46;29.27
64610;BME280;51019;46.090;6.350;2023-04-06T11:37:46;96755.56;;;16.29;27.07
64610;BME280;51019;46.090;6.350;2023-04-06T11:40:14;96739.25;;;17.39;25.89
64610;BME280;51019;46.090;6.350;2023-04-06T11:42:52;96751.25;;;18.02;21.33
64610;BME280;51019;46.090;6.350;2023-04-06T11:45:22;96749.66;;;18.37;23.56
64610;BME280;51019;46.090;6.350;2023-04-06T11:47:55;96743.28;;;17.73;24.41
64610;BME280;51019;46.090;6.350;2023-04-06T11:50:32;96753.69;;;16.99;23.03
64610;BME280;51019;46.090;6.350;2023-04-06T11:53:01;96745.84;;;17.43;22.66
64610;BME280;51019;46.090;6.350;2023-04-06T11:55:38;96721.34;;;17.79;22.59
64610;BME280;51019;46.090;6.350;2023-04-06T11:58:10;96740.34;;;18.27;22.28
64610;BME280;51019;46.090;6.350;2023-04-06T12:00:43;96727.78;;;16.87;25.60
64610;BME280;51019;46.090;6.350;2023-04-06T12:03:12;96742.25;;;17.22;23.31
64610;BME280;51019;46.090;6.350;2023-04-06T12:05:39;96723.78;;;17.14;22.98
64610;BME280;51019;46.090;6.350;2023-04-06T12:08:07;96737.44;;;16.49;26.24
64610;BME280;51019;46.090;6.350;2023-04-06T12:10:35;96732.63;;;16.21;26.78
64610;BME280;51019;46.090;6.350;2023-04-06T12:13:02;96740.00;;;15.95;24.13
64610;BME280;51019;46.090;6.350;2023-04-06T12:15:31;96736.94;;;16.14;22.88
64610;BME280;51019;46.090;6.350;2023-04-06T12:18:00;96732.03;;;16.11;23.24
64610;BME280;51019;46.090;6.350;2023-04-06T12:20:28;96719.38;;;15.90;21.94
64610;BME280;51019;46.090;6.350;2023-04-06T12:22:55;96718.50;;;16.60;23.05
64610;BME280;51019;46.090;6.350;2023-04-06T12:25:23;96691.47;;;16.19;25.12
64610;BME280;51019;46.090;6.350;2023-04-06T12:27:50;96723.81;;;16.68;19.99
64610;BME280;51019;46.090;6.350;2023-04-06T12:30:17;96726.13;;;16.63;19.52
64610;BME280;51019;46.090;6.350;2023-04-06T12:32:45;96726.84;;;16.49;21.41
64610;BME280;51019;46.090;6.350;2023-04-06T12:35:14;96720.56;;;16.50;21.29
64610;BME280;51019;46.090;6.350;2023-04-06T12:37:42;96727.72;;;16.10;21.45
64610;BME280;51019;46.090;6.350;2023-04-06T12:40:10;96729.66;;;16.16;22.18
64610;BME280;51019;46.090;6.350;2023-04-06T12:42:38;96721.16;;;16.60;23.29
64610;BME280;51019;46.090;6.350;2023-04-06T12:45:08;96715.47;;;15.78;25.17
64610;BME280;51019;46.090;6.350;2023-04-06T12:47:35;96720.22;;;15.83;21.01
64610;BME280;51019;46.090;6.350;2023-04-06T12:50:03;96712.75;;;15.94;23.91
64610;BME280;51019;46.090;6.350;2023-04-06T12:52:34;96725.91;;;16.11;21.67
64610;BME280;51019;46.090;6.350;2023-04-06T12:55:02;96717.97;;;16.11;24.39
64610;BME280;51019;46.090;6.350;2023-04-06T12:57:31;96722.84;;;15.91;24.06
64610;BME280;51019;46.090;6.350;2023-04-06T12:59:58;96719.91;;;15.78;22.17
64610;BME280;51019;46.090;6.350;2023-04-06T13:02:25;96718.03;;;15.94;24.78
64610;BME280;51019;46.090;6.350;2023-04-06T13:04:53;96705.84;;;15.85;24.13